sensor_id;sensor_type;location;lat;lon;timestamp;pressure;altitude;pressure_sealevel;temperature;humidity
72118;BME280;59992;47.490;8.736;2023-05-12T00:01:46;96298.38;;;11.01;93.09
72118;BME280;59992;47.490;8.736;2023-05-12T00:04:36;96297.70;;;11.02;92.73
72118;BME280;59992;47.490;8.736;2023-05-12T00:07:28;96296.19;;;11.04;92.51
72118;BME280;59992;47.490;8.736;2023-05-12T00:10:18;96292.64;;;11.06;92.54
72118;BME280;59992;47.490;8.736;2023-05-12T00:13:09;96287.73;;;11.07;92.40
72118;BME280;59992;47.490;8.736;2023-05-12T00:15:59;96285.61;;;11.08;92.19
72118;BME280;59992;47.490;8.736;2023-05-12T00:18:49;96286.37;;;11.09;92.29
72118;BME280;59992;47.490;8.736;2023-05-12T00:21:40;96286.00;;;11.11;91.86
72118;BME280;59992;47.490;8.736;2023-05-12T00:24:31;96284.70;;;11.09;92.05
72118;BME280;59992;47.490;8.736;2023-05-12T00:27:21;96288.72;;;11.10;92.26
72118;BME280;59992;47.490;8.736;2023-05-12T00:30:12;96284.27;;;11.11;92.07
72118;BME280;59992;47.490;8.736;2023-05-12T00:33:03;96282.30;;;11.12;91.73
72118;BME280;59992;47.490;8.736;2023-05-12T00:35:53;96283.52;;;11.15;91.56
72118;BME280;59992;47.490;8.736;2023-05-12T00:38:43;96283.77;;;11.17;91.57
72118;BME280;59992;47.490;8.736;2023-05-12T00:41:33;96284.16;;;11.17;91.49
72118;BME280;59992;47.490;8.736;2023-05-12T00:44:24;96283.09;;;11.17;91.71
72118;BME280;59992;47.490;8.736;2023-05-12T00:47:14;96277.41;;;11.18;91.60
72118;BME280;59992;47.490;8.736;2023-05-12T00:50:07;96283.32;;;11.17;91.72
72118;BME280;59992;47.490;8.736;2023-05-12T00:52:58;96281.64;;;11.15;92.48
72118;BME280;59992;47.490;8.736;2023-05-12T00:55:50;96278.00;;;11.14;92.58
72118;BME280;59992;47.490;8.736;2023-05-12T00:58:41;96279.36;;;11.14;92.21
72118;BME280;59992;47.490;8.736;2023-05-12T01:01:32;96277.02;;;11.14;92.01
72118;BME280;59992;47.490;8.736;2023-05-12T01:04:22;96272.98;;;11.13;92.52
72118;BME280;59992;47.490;8.736;2023-05-12T01:07:19;96271.63;;;11.13;93.08
72118;BME280;59992;47.490;8.736;2023-05-12T01:10:18;96274.04;;;11.13;93.55
72118;BME280;59992;47.490;8.736;2023-05-12T01:13:09;96272.16;;;11.15;92.98
72118;BME280;59992;47.490;8.736;2023-05-12T01:16:01;96269.98;;;11.15;92.71
72118;BME280;59992;47.490;8.736;2023-05-12T01:18:54;96270.34;;;11.12;92.57
72118;BME280;59992;47.490;8.736;2023-05-12T01:21:44;96266.98;;;11.11;92.42
72118;BME280;59992;47.490;8.736;2023-05-12T01:24:41;96265.85;;;11.12;92.17
72118;BME280;59992;47.490;8.736;2023-05-12T01:27:34;96259.92;;;11.09;92.28
72118;BME280;59992;47.490;8.736;2023-05-12T01:30:27;96261.44;;;11.08;92.26
72118;BME280;59992;47.490;8.736;2023-05-12T01:33:18;96264.08;;;11.07;92.72
72118;BME280;59992;47.490;8.736;2023-05-12T01:36:08;96262.25;;;11.06;93.61
72118;BME280;59992;47.490;8.736;2023-05-12T01:38:59;96265.36;;;11.05;93.42
72118;BME280;59992;47.490;8.736;2023-05-12T01:41:49;96264.90;;;11.03;93.78
72118;BME280;59992;47.490;8.736;2023-05-12T01:44:39;96260.27;;;11.03;94.72
72118;BME280;59992;47.490;8.736;2023-05-12T01:47:30;96260.81;;;11.06;93.96
72118;BME280;59992;47.490;8.736;2023-05-12T01:50:20;96263.41;;;11.08;93.43
72118;BME280;59992;47.490;8.736;2023-05-12T01:53:10;96266.98;;;11.10;92.95
72118;BME280;59992;47.490;8.736;2023-05-12T01:56:01;96266.84;;;11.11;92.53
72118;BME280;59992;47.490;8.736;2023-05-12T01:58:51;96264.58;;;11.13;92.13
72118;BME280;59992;47.490;8.736;2023-05-12T02:01:41;96265.77;;;11.11;92.76
72118;BME280;59992;47.490;8.736;2023-05-12T02:04:31;96268.57;;;11.10;93.14
72118;BME280;59992;47.490;8.736;2023-05-12T02:07:22;96271.67;;;11.10;92.62
72118;BME280;59992;47.490;8.736;2023-05-12T02:10:12;96272.44;;;11.11;92.70
72118;BME280;59992;47.490;8.736;2023-05-12T02:13:02;96271.89;;;11.09;93.09
72118;BME280;59992;47.490;8.736;2023-05-12T02:15:52;96272.19;;;11.07;93.46
72118;BME280;59992;47.490;8.736;2023-05-12T02:18:43;96270.36;;;11.05;93.83
72118;BME280;59992;47.490;8.736;2023-05-12T02:21:33;96267.48;;;11.03;93.62
72118;BME280;59992;47.490;8.736;2023-05-12T02:24:23;96266.17;;;11.03;93.09
72118;BME280;59992;47.490;8.736;2023-05-12T02:27:13;96265.02;;;11.00;93.89
72118;BME280;59992;47.490;8.736;2023-05-12T02:30:05;96263.66;;;11.00;94.55
72118;BME280;59992;47.490;8.736;2023-05-12T02:32:55;96261.83;;;10.99;94.33
72118;BME280;59992;47.490;8.736;2023-05-12T02:35:45;96260.77;;;10.99;94.00
72118;BME280;59992;47.490;8.736;2023-05-12T02:38:36;96264.61;;;10.96;93.87
72118;BME280;59992;47.490;8.736;2023-05-12T02:41:27;96260.66;;;10.94;93.54
72118;BME280;59992;47.490;8.736;2023-05-12T02:44:18;96261.48;;;10.93;93.30
72118;BME280;59992;47.490;8.736;2023-05-12T02:47:10;96258.67;;;10.90;93.47
72118;BME280;59992;47.490;8.736;2023-05-12T02:50:00;96260.77;;;10.88;93.18
72118;BME280;59992;47.490;8.736;2023-05-12T02:52:51;96259.54;;;10.83;93.44
72118;BME280;59992;47.490;8.736;2023-05-12T02:55:41;96253.12;;;10.76;93.72
72118;BME280;59992;47.490;8.736;2023-05-12T02:58:31;96257.45;;;10.78;93.66
72118;BME280;59992;47.490;8.736;2023-05-12T03:01:22;96256.23;;;10.78;93.78
72118;BME280;59992;47.490;8.736;2023-05-12T03:04:11;96254.81;;;10.78;94.10
72118;BME280;59992;47.490;8.736;2023-05-12T03:07:02;96259.20;;;10.78;94.28
72118;BME280;59992;47.490;8.736;2023-05-12T03:09:52;96257.61;;;10.79;94.66
72118;BME280;59992;47.490;8.736;2023-05-12T03:12:42;96253.06;;;10.80;93.91
72118;BME280;59992;47.490;8.736;2023-05-12T03:15:32;96254.00;;;10.83;93.77
72118;BME280;59992;47.490;8.736;2023-05-12T03:18:23;96254.09;;;10.84;94.23
72118;BME280;59992;47.490;8.736;2023-05-12T03:21:13;96256.29;;;10.86;94.26
72118;BME280;59992;47.490;8.736;2023-05-12T03:24:04;96254.63;;;10.88;94.50
72118;BME280;59992;47.490;8.736;2023-05-12T03:26:55;96254.96;;;10.89;94.00
72118;BME280;59992;47.490;8.736;2023-05-12T03:29:45;96254.65;;;10.89;94.02
72118;BME280;59992;47.490;8.736;2023-05-12T03:32:35;96248.98;;;10.92;93.45
72118;BME280;59992;47.490;8.736;2023-05-12T03:35:27;96248.30;;;10.93;94.03
72118;BME280;59992;47.490;8.736;2023-05-12T03:38:17;96252.02;;;10.93;94.51
72118;BME280;59992;47.490;8.736;2023-05-12T03:41:07;96249.97;;;10.92;94.40
72118;BME280;59992;47.490;8.736;2023-05-12T03:43:57;96241.66;;;10.85;94.41
72118;BME280;59992;47.490;8.736;2023-05-12T03:46:47;96246.71;;;10.91;94.38
72118;BME280;59992;47.490;8.736;2023-05-12T03:49:37;96246.63;;;10.90;94.72
72118;BME280;59992;47.490;8.736;2023-05-12T03:52:27;96244.13;;;10.91;94.66
72118;BME280;59992;47.490;8.736;2023-05-12T03:55:18;96247.63;;;10.94;94.43
72118;BME280;59992;47.490;8.736;2023-05-12T03:58:07;96247.11;;;10.95;94.50
72118;BME280;59992;47.490;8.736;2023-05-12T04:00:58;96242.17;;;10.94;94.07
72118;BME280;59992;47.490;8.736;2023-05-12T04:03:49;96238.64;;;10.98;94.03
72118;BME280;59992;47.490;8.736;2023-05-12T04:06:39;96238.42;;;10.99;93.98
72118;BME280;59992;47.490;8.736;2023-05-12T04:09:45;96236.98;;;11.02;94.14
72118;BME280;59992;47.490;8.736;2023-05-12T04:12:35;96239.52;;;11.06;93.64
72118;BME280;59992;47.490;8.736;2023-05-12T04:15:25;96240.67;;;11.09;93.39
72118;BME280;59992;47.490;8.736;2023-05-12T04:18:15;96239.23;;;11.10;93.32
72118;BME280;59992;47.490;8.736;2023-05-12T04:21:06;96242.38;;;11.16;93.23
72118;BME280;59992;47.490;8.736;2023-05-12T04:23:55;96244.67;;;11.19;93.65
72118;BME280;59992;47.490;8.736;2023-05-12T04:26:45;96247.27;;;11.24;93.47
72118;BME280;59992;47.490;8.736;2023-05-12T04:29:36;96253.77;;;11.33;93.31
72118;BME280;59992;47.490;8.736;2023-05-12T04:32:26;96248.33;;;11.37;92.40
72118;BME280;59992;47.490;8.736;2023-05-12T04:35:16;96256.41;;;11.48;91.93
72118;BME280;59992;47.490;8.736;2023-05-12T04:38:06;96260.84;;;11.52;91.53
72118;BME280;59992;47.490;8.736;2023-05-12T04:40:59;96259.02;;;11.56;91.26
72118;BME280;59992;47.490;8.736;2023-05-12T04:43:50;96256.70;;;11.63;90.78
72118;BME280;59992;47.490;8.736;2023-05-12T04:46:40;96256.73;;;11.66;90.66
72118;BME280;59992;47.490;8.736;2023-05-12T04:49:30;96260.02;;;11.72;90.12
72118;BME280;59992;47.490;8.736;2023-05-12T04:52:21;96264.70;;;11.83;90.80
72118;BME280;59992;47.490;8.736;2023-05-12T04:55:11;96263.07;;;11.96;90.55
72118;BME280;59992;47.490;8.736;2023-05-12T04:58:02;96267.35;;;12.11;89.93
72118;BME280;59992;47.490;8.736;2023-05-12T05:00:53;96267.75;;;12.22;88.52
72118;BME280;59992;47.490;8.736;2023-05-12T05:03:43;96273.39;;;12.31;87.20
72118;BME280;59992;47.490;8.736;2023-05-12T05:06:33;96271.50;;;12.41;86.34
72118;BME280;59992;47.490;8.736;2023-05-12T05:09:23;96273.71;;;12.50;87.45
72118;BME280;59992;47.490;8.736;2023-05-12T05:12:13;96272.35;;;12.60;87.02
72118;BME280;59992;47.490;8.736;2023-05-12T05:15:04;96273.71;;;12.70;85.65
72118;BME280;59992;47.490;8.736;2023-05-12T05:17:55;96273.63;;;12.86;86.94
72118;BME280;59992;47.490;8.736;2023-05-12T05:20:45;96276.22;;;12.98;84.06
72118;BME280;59992;47.490;8.736;2023-05-12T05:23:35;96274.55;;;13.15;82.79
72118;BME280;59992;47.490;8.736;2023-05-12T05:26:26;96274.66;;;13.77;80.64
72118;BME280;59992;47.490;8.736;2023-05-12T05:29:16;96279.27;;;14.93;76.83
72118;BME280;59992;47.490;8.736;2023-05-12T05:32:06;96282.27;;;15.94;73.36
72118;BME280;59992;47.490;8.736;2023-05-12T05:34:57;96277.55;;;16.76;73.60
72118;BME280;59992;47.490;8.736;2023-05-12T05:37:47;96281.60;;;17.48;76.46
72118;BME280;59992;47.490;8.736;2023-05-12T05:40:38;96280.06;;;18.04;67.63
72118;BME280;59992;47.490;8.736;2023-05-12T05:43:28;96278.33;;;18.59;66.98
72118;BME280;59992;47.490;8.736;2023-05-12T05:46:19;96285.70;;;19.28;66.54
72118;BME280;59992;47.490;8.736;2023-05-12T05:49:09;96282.33;;;19.29;64.77
72118;BME280;59992;47.490;8.736;2023-05-12T05:51:59;96283.88;;;19.22;61.69
72118;BME280;59992;47.490;8.736;2023-05-12T05:54:49;96283.42;;;19.46;61.29
72118;BME280;59992;47.490;8.736;2023-05-12T05:57:39;96288.16;;;19.84;64.12
72118;BME280;59992;47.490;8.736;2023-05-12T06:00:30;96292.08;;;20.41;59.29
72118;BME280;59992;47.490;8.736;2023-05-12T06:03:20;96287.77;;;20.93;55.20
72118;BME280;59992;47.490;8.736;2023-05-12T06:06:10;96286.61;;;21.29;56.75
72118;BME280;59992;47.490;8.736;2023-05-12T06:08:44;96279.67;;;21.10;53.97
72118;BME280;59992;47.490;8.736;2023-05-12T06:11:34;96287.85;;;20.76;56.30
72118;BME280;59992;47.490;8.736;2023-05-12T06:14:24;96287.13;;;20.39;54.80
72118;BME280;59992;47.490;8.736;2023-05-12T06:17:14;96286.90;;;20.21;53.99
72118;BME280;59992;47.490;8.736;2023-05-12T06:20:05;96289.21;;;20.41;54.78
72118;BME280;59992;47.490;8.736;2023-05-12T06:22:56;96291.46;;;21.00;52.40
72118;BME280;59992;47.490;8.736;2023-05-12T06:25:48;96293.60;;;21.29;54.94
72118;BME280;59992;47.490;8.736;2023-05-12T06:28:39;96300.04;;;21.02;56.41
72118;BME280;59992;47.490;8.736;2023-05-12T06:31:29;96303.27;;;20.65;53.43
72118;BME280;59992;47.490;8.736;2023-05-12T06:34:19;96299.51;;;20.15;52.40
72118;BME280;59992;47.490;8.736;2023-05-12T06:37:10;96298.61;;;19.78;55.22
72118;BME280;59992;47.490;8.736;2023-05-12T06:40:00;96296.50;;;19.83;54.06
72118;BME280;59992;47.490;8.736;2023-05-12T06:42:50;96300.36;;;20.18;52.98
72118;BME280;59992;47.490;8.736;2023-05-12T06:45:40;96299.30;;;20.16;53.07
72118;BME280;59992;47.490;8.736;2023-05-12T06:48:31;96300.05;;;20.07;52.68
72118;BME280;59992;47.490;8.736;2023-05-12T06:51:21;96298.14;;;20.13;53.82
72118;BME280;59992;47.490;8.736;2023-05-12T06:54:12;96299.27;;;19.88;52.69
72118;BME280;59992;47.490;8.736;2023-05-12T06:57:02;96294.23;;;19.73;53.10
72118;BME280;59992;47.490;8.736;2023-05-12T06:59:53;96300.04;;;20.08;52.16
72118;BME280;59992;47.490;8.736;2023-05-12T07:02:43;96300.50;;;19.99;52.10
72118;BME280;59992;47.490;8.736;2023-05-12T07:05:34;96300.63;;;19.81;53.00
72118;BME280;59992;47.490;8.736;2023-05-12T07:08:24;96299.11;;;19.66;52.53
72118;BME280;59992;47.490;8.736;2023-05-12T07:11:14;96295.11;;;19.46;51.80
72118;BME280;59992;47.490;8.736;2023-05-12T07:14:07;96293.95;;;19.25;52.81
72118;BME280;59992;47.490;8.736;2023-05-12T07:16:58;96291.41;;;18.97;53.83
72118;BME280;59992;47.490;8.736;2023-05-12T07:19:48;96294.64;;;18.71;55.14
72118;BME280;59992;47.490;8.736;2023-05-12T07:22:39;96293.54;;;18.41;55.63
72118;BME280;59992;47.490;8.736;2023-05-12T07:25:30;96291.65;;;18.15;56.96
72118;BME280;59992;47.490;8.736;2023-05-12T07:28:20;96289.88;;;18.00;56.44
72118;BME280;59992;47.490;8.736;2023-05-12T07:31:10;96287.10;;;17.82;57.64
72118;BME280;59992;47.490;8.736;2023-05-12T07:34:00;96282.38;;;17.61;58.72
72118;BME280;59992;47.490;8.736;2023-05-12T07:36:50;96284.80;;;17.74;58.87
72118;BME280;59992;47.490;8.736;2023-05-12T07:39:41;96288.69;;;18.01;56.10
72118;BME280;59992;47.490;8.736;2023-05-12T07:42:31;96286.55;;;18.06;56.09
72118;BME280;59992;47.490;8.736;2023-05-12T07:45:22;96285.48;;;18.01;55.29
72118;BME280;59992;47.490;8.736;2023-05-12T07:48:13;96286.40;;;17.90;55.88
72118;BME280;59992;47.490;8.736;2023-05-12T07:51:04;96284.77;;;17.88;56.03
72118;BME280;59992;47.490;8.736;2023-05-12T07:53:54;96287.80;;;17.82;55.58
72118;BME280;59992;47.490;8.736;2023-05-12T07:56:46;96281.88;;;17.83;56.07
72118;BME280;59992;47.490;8.736;2023-05-12T07:59:36;96277.98;;;17.75;55.57
72118;BME280;59992;47.490;8.736;2023-05-12T08:02:26;96278.29;;;17.63;56.36
72118;BME280;59992;47.490;8.736;2023-05-12T08:05:17;96277.52;;;17.54;56.48
72118;BME280;59992;47.490;8.736;2023-05-12T08:08:07;96278.52;;;17.41;55.83
72118;BME280;59992;47.490;8.736;2023-05-12T08:11:03;96279.82;;;17.24;56.20
72118;BME280;59992;47.490;8.736;2023-05-12T08:13:54;96283.59;;;17.05;56.92
72118;BME280;59992;47.490;8.736;2023-05-12T08:16:44;96284.27;;;16.87;57.44
72118;BME280;59992;47.490;8.736;2023-05-12T08:19:34;96284.34;;;16.78;59.02
72118;BME280;59992;47.490;8.736;2023-05-12T08:22:24;96283.95;;;16.87;58.48
72118;BME280;59992;47.490;8.736;2023-05-12T08:25:15;96283.76;;;16.89;58.56
72118;BME280;59992;47.490;8.736;2023-05-12T08:28:04;96283.38;;;17.12;58.33
72118;BME280;59992;47.490;8.736;2023-05-12T08:30:55;96284.23;;;17.03;56.79
72118;BME280;59992;47.490;8.736;2023-05-12T08:33:45;96284.92;;;16.99;57.68
72118;BME280;59992;47.490;8.736;2023-05-12T08:36:35;96285.63;;;16.97;57.89
72118;BME280;59992;47.490;8.736;2023-05-12T08:39:25;96286.32;;;16.97;57.99
72118;BME280;59992;47.490;8.736;2023-05-12T08:42:33;96285.58;;;16.91;57.54
72118;BME280;59992;47.490;8.736;2023-05-12T08:45:26;96286.55;;;16.82;57.76
72118;BME280;59992;47.490;8.736;2023-05-12T08:48:18;96291.69;;;16.73;57.88
72118;BME280;59992;47.490;8.736;2023-05-12T08:51:10;96286.66;;;16.85;57.21
72118;BME280;59992;47.490;8.736;2023-05-12T08:54:04;96288.45;;;17.03;59.03
72118;BME280;59992;47.490;8.736;2023-05-12T08:56:58;96289.82;;;17.12;58.14
72118;BME280;59992;47.490;8.736;2023-05-12T08:59:53;96288.94;;;17.20;58.41
72118;BME280;59992;47.490;8.736;2023-05-12T09:02:45;96289.21;;;17.30;57.15
72118;BME280;59992;47.490;8.736;2023-05-12T09:05:36;96285.98;;;17.61;56.97
72118;BME280;59992;47.490;8.736;2023-05-12T09:08:29;96284.99;;;17.95;58.27
72118;BME280;59992;47.490;8.736;2023-05-12T09:11:22;96287.77;;;18.53;55.71
72118;BME280;59992;47.490;8.736;2023-05-12T09:14:17;96286.09;;;18.62;54.63
72118;BME280;59992;47.490;8.736;2023-05-12T09:17:07;96272.94;;;18.73;53.75
72118;BME280;59992;47.490;8.736;2023-05-12T09:20:00;96287.08;;;18.50;54.88
72118;BME280;59992;47.490;8.736;2023-05-12T09:22:51;96284.89;;;18.37;52.21
72118;BME280;59992;47.490;8.736;2023-05-12T09:25:56;96283.48;;;18.16;53.10
72118;BME280;59992;47.490;8.736;2023-05-12T09:28:50;96285.23;;;18.02;54.68
72118;BME280;59992;47.490;8.736;2023-05-12T09:31:49;96284.08;;;17.99;53.71
72118;BME280;59992;47.490;8.736;2023-05-12T09:34:40;96272.27;;;17.81;52.55
72118;BME280;59992;47.490;8.736;2023-05-12T09:37:34;96281.46;;;17.80;53.45
72118;BME280;59992;47.490;8.736;2023-05-12T09:40:24;96281.27;;;17.86;51.95
72118;BME280;59992;47.490;8.736;2023-05-12T09:43:16;96277.42;;;17.87;54.23
72118;BME280;59992;47.490;8.736;2023-05-12T09:46:06;96271.34;;;18.03;53.14
72118;BME280;59992;47.490;8.736;2023-05-12T09:48:58;96273.00;;;18.26;52.98
72118;BME280;59992;47.490;8.736;2023-05-12T09:51:56;96272.80;;;18.39;51.13
72118;BME280;59992;47.490;8.736;2023-05-12T09:54:48;96268.80;;;18.60;50.94
72118;BME280;59992;47.490;8.736;2023-05-12T09:57:41;96267.46;;;18.78;50.66
72118;BME280;59992;47.490;8.736;2023-05-12T10:00:32;96267.96;;;18.95;49.43
72118;BME280;59992;47.490;8.736;2023-05-12T10:03:25;96267.80;;;19.05;47.58
72118;BME280;59992;47.490;8.736;2023-05-12T10:06:21;96269.64;;;19.08;47.92
72118;BME280;59992;47.490;8.736;2023-05-12T10:09:18;96268.98;;;18.95;48.26
72118;BME280;59992;47.490;8.736;2023-05-12T10:12:10;96269.06;;;18.88;47.77
72118;BME280;59992;47.490;8.736;2023-05-12T10:15:02;96274.45;;;18.74;47.38
72118;BME280;59992;47.490;8.736;2023-05-12T10:17:54;96273.41;;;18.70;49.10
72118;BME280;59992;47.490;8.736;2023-05-12T10:20:44;96274.97;;;18.75;49.35
72118;BME280;59992;47.490;8.736;2023-05-12T10:23:35;96270.11;;;18.89;50.70
72118;BME280;59992;47.490;8.736;2023-05-12T10:26:26;96268.82;;;19.07;50.15
72118;BME280;59992;47.490;8.736;2023-05-12T10:29:17;96268.73;;;19.26;49.45
72118;BME280;59992;47.490;8.736;2023-05-12T10:32:08;96259.73;;;19.45;49.36
72118;BME280;59992;47.490;8.736;2023-05-12T10:35:09;96261.89;;;19.64;47.59
72118;BME280;59992;47.490;8.736;2023-05-12T10:38:05;96267.27;;;19.81;47.37
72118;BME280;59992;47.490;8.736;2023-05-12T10:40:57;96262.98;;;19.86;47.24
72118;BME280;59992;47.490;8.736;2023-05-12T10:43:49;96261.89;;;19.78;47.12
72118;BME280;59992;47.490;8.736;2023-05-12T10:46:40;96260.41;;;19.65;46.15
72118;BME280;59992;47.490;8.736;2023-05-12T10:49:38;96258.98;;;19.63;45.17
72118;BME280;59992;47.490;8.736;2023-05-12T10:52:30;96249.36;;;19.50;44.62
72118;BME280;59992;47.490;8.736;2023-05-12T10:55:31;96257.67;;;19.26;44.90
72118;BME280;59992;47.490;8.736;2023-05-12T10:58:21;96254.14;;;18.99;45.61
72118;BME280;59992;47.490;8.736;2023-05-12T11:01:11;96253.37;;;18.80;46.60
72118;BME280;59992;47.490;8.736;2023-05-12T11:04:12;96253.47;;;18.66;46.87
72118;BME280;59992;47.490;8.736;2023-05-12T11:07:05;96255.48;;;18.45;47.86
72118;BME280;59992;47.490;8.736;2023-05-12T11:09:58;96257.98;;;18.36;47.55
72118;BME280;59992;47.490;8.736;2023-05-12T11:12:49;96254.25;;;18.11;49.30
72118;BME280;59992;47.490;8.736;2023-05-12T11:15:43;96255.38;;;18.08;47.90
72118;BME280;59992;47.490;8.736;2023-05-12T11:18:34;96250.85;;;18.08;48.05
72118;BME280;59992;47.490;8.736;2023-05-12T11:21:25;96246.18;;;18.00;49.66
72118;BME280;59992;47.490;8.736;2023-05-12T11:24:17;96249.33;;;18.12;49.55
72118;BME280;59992;47.490;8.736;2023-05-12T11:27:12;96249.48;;;18.19;49.04
72118;BME280;59992;47.490;8.736;2023-05-12T11:30:03;96243.85;;;18.27;48.95
72118;BME280;59992;47.490;8.736;2023-05-12T11:33:02;96242.74;;;18.32;49.24
72118;BME280;59992;47.490;8.736;2023-05-12T11:35:52;96241.22;;;18.41;47.47
72118;BME280;59992;47.490;8.736;2023-05-12T11:38:49;96244.41;;;18.43;47.93
72118;BME280;59992;47.490;8.736;2023-05-12T11:41:39;96241.02;;;18.36;47.79
72118;BME280;59992;47.490;8.736;2023-05-12T11:44:30;96238.98;;;18.43;47.27
72118;BME280;59992;47.490;8.736;2023-05-12T11:47:21;96239.95;;;18.44;48.03
72118;BME280;59992;47.490;8.736;2023-05-12T11:50:11;96236.65;;;18.48;48.19
72118;BME280;59992;47.490;8.736;2023-05-12T11:53:03;96239.26;;;18.47;47.54
72118;BME280;59992;47.490;8.736;2023-05-12T11:55:55;96238.40;;;18.45;47.12
72118;BME280;59992;47.490;8.736;2023-05-12T11:58:53;96234.54;;;18.43;47.45
72118;BME280;59992;47.490;8.736;2023-05-12T12:01:47;96235.67;;;18.39;47.68
72118;BME280;59992;47.490;8.736;2023-05-12T12:04:38;96234.66;;;18.44;48.76
72118;BME280;59992;47.490;8.736;2023-05-12T12:07:30;96234.40;;;18.55;47.66
72118;BME280;59992;47.490;8.736;2023-05-12T12:10:22;96233.48;;;18.58;47.29
72118;BME280;59992;47.490;8.736;2023-05-12T12:13:12;96231.95;;;18.61;47.57
72118;BME280;59992;47.490;8.736;2023-05-12T12:16:09;96228.47;;;18.60;48.40
72118;BME280;59992;47.490;8.736;2023-05-12T12:19:00;96228.90;;;18.64;48.48
72118;BME280;59992;47.490;8.736;2023-05-12T12:21:50;96231.23;;;18.75;47.90
72118;BME280;59992;47.490;8.736;2023-05-12T12:24:41;96215.40;;;18.64;47.45
72118;BME280;59992;47.490;8.736;2023-05-12T12:27:31;96224.11;;;18.65;48.07
72118;BME280;59992;47.490;8.736;2023-05-12T12:30:21;96229.23;;;18.59;48.10
72118;BME280;59992;47.490;8.736;2023-05-12T12:33:12;96224.20;;;18.55;46.87
72118;BME280;59992;47.490;8.736;2023-05-12T12:36:02;96224.41;;;18.43;47.05
72118;BME280;59992;47.490;8.736;2023-05-12T12:38:53;96222.55;;;18.30;48.00
72118;BME280;59992;47.490;8.736;2023-05-12T12:41:44;96220.43;;;18.11;47.97
72118;BME280;59992;47.490;8.736;2023-05-12T12:44:35;96213.46;;;17.93;48.57
72118;BME280;59992;47.490;8.736;2023-05-12T12:47:26;96209.41;;;17.78;48.76
72118;BME280;59992;47.490;8.736;2023-05-12T12:50:16;96208.94;;;17.68;49.59
72118;BME280;59992;47.490;8.736;2023-05-12T12:53:06;96207.92;;;17.61;50.47
72118;BME280;59992;47.490;8.736;2023-05-12T12:55:57;96199.89;;;17.54;51.08
72118;BME280;59992;47.490;8.736;2023-05-12T12:58:47;96200.28;;;17.53;51.16
72118;BME280;59992;47.490;8.736;2023-05-12T13:01:37;96197.66;;;17.57;50.69
72118;BME280;59992;47.490;8.736;2023-05-12T13:04:28;96197.22;;;17.64;50.04
72118;BME280;59992;47.490;8.736;2023-05-12T13:07:18;96194.61;;;17.72;50.03
72118;BME280;59992;47.490;8.736;2023-05-12T13:10:10;96193.88;;;17.81;49.71
72118;BME280;59992;47.490;8.736;2023-05-12T13:13:00;96192.31;;;17.90;50.32
72118;BME280;59992;47.490;8.736;2023-05-12T13:15:52;96192.70;;;17.89;50.03
72118;BME280;59992;47.490;8.736;2023-05-12T13:18:42;96190.16;;;17.79;49.45
72118;BME280;59992;47.490;8.736;2023-05-12T13:21:33;96187.38;;;17.77;49.53
72118;BME280;59992;47.490;8.736;2023-05-12T13:24:23;96187.00;;;17.77;49.59
72118;BME280;59992;47.490;8.736;2023-05-12T13:27:14;96181.57;;;17.73;48.68
72118;BME280;59992;47.490;8.736;2023-05-12T13:30:06;96179.40;;;17.71;49.35
72118;BME280;59992;47.490;8.736;2023-05-12T13:32:57;96178.59;;;17.75;50.35
72118;BME280;59992;47.490;8.736;2023-05-12T13:35:48;96182.01;;;17.77;49.56
72118;BME280;59992;47.490;8.736;2023-05-12T13:38:38;96171.80;;;17.74;49.98
72118;BME280;59992;47.490;8.736;2023-05-12T13:41:28;96183.00;;;17.77;48.36
72118;BME280;59992;47.490;8.736;2023-05-12T13:44:18;96181.72;;;17.65;48.27
72118;BME280;59992;47.490;8.736;2023-05-12T13:47:09;96178.16;;;17.60;48.41
72118;BME280;59992;47.490;8.736;2023-05-12T13:49:59;96176.17;;;17.63;48.67
72118;BME280;59992;47.490;8.736;2023-05-12T13:52:49;96168.59;;;17.74;48.66
72118;BME280;59992;47.490;8.736;2023-05-12T13:55:40;96169.46;;;17.94;48.33
72118;BME280;59992;47.490;8.736;2023-05-12T13:58:30;96172.45;;;18.15;48.56
72118;BME280;59992;47.490;8.736;2023-05-12T14:01:20;96172.77;;;18.30;48.21
72118;BME280;59992;47.490;8.736;2023-05-12T14:04:11;96171.78;;;18.47;48.11
72118;BME280;59992;47.490;8.736;2023-05-12T14:07:02;96170.30;;;18.63;48.01
72118;BME280;59992;47.490;8.736;2023-05-12T14:09:52;96179.65;;;18.73;47.76
72118;BME280;59992;47.490;8.736;2023-05-12T14:12:43;96170.80;;;18.68;47.66
72118;BME280;59992;47.490;8.736;2023-05-12T14:15:33;96167.40;;;18.63;47.03
72118;BME280;59992;47.490;8.736;2023-05-12T14:18:23;96173.64;;;18.52;46.65
72118;BME280;59992;47.490;8.736;2023-05-12T14:21:14;96166.76;;;18.38;46.33
72118;BME280;59992;47.490;8.736;2023-05-12T14:24:05;96165.33;;;18.31;46.93
72118;BME280;59992;47.490;8.736;2023-05-12T14:26:56;96165.44;;;18.29;45.93
72118;BME280;59992;47.490;8.736;2023-05-12T14:29:47;96165.39;;;18.25;45.35
72118;BME280;59992;47.490;8.736;2023-05-12T14:32:38;96165.34;;;18.17;44.48
72118;BME280;59992;47.490;8.736;2023-05-12T14:35:28;96164.97;;;18.17;45.21
72118;BME280;59992;47.490;8.736;2023-05-12T14:38:19;96165.11;;;18.14;45.39
72118;BME280;59992;47.490;8.736;2023-05-12T14:41:10;96164.23;;;18.15;46.01
72118;BME280;59992;47.490;8.736;2023-05-12T14:44:00;96158.89;;;18.21;45.80
72118;BME280;59992;47.490;8.736;2023-05-12T14:46:50;96160.94;;;18.32;46.17
72118;BME280;59992;47.490;8.736;2023-05-12T14:49:40;96166.04;;;18.47;45.31
72118;BME280;59992;47.490;8.736;2023-05-12T14:52:30;96163.31;;;18.54;44.61
72118;BME280;59992;47.490;8.736;2023-05-12T14:55:26;96169.66;;;18.59;45.24
72118;BME280;59992;47.490;8.736;2023-05-12T14:58:17;96175.64;;;18.62;45.45
72118;BME280;59992;47.490;8.736;2023-05-12T15:01:09;96173.02;;;18.60;45.43
72118;BME280;59992;47.490;8.736;2023-05-12T15:04:00;96169.64;;;18.68;45.85
72118;BME280;59992;47.490;8.736;2023-05-12T15:06:50;96175.22;;;18.72;45.98